sensor_id;sensor_type;location;lat;lon;timestamp;temperature;humidity
24162;DHT22;12318;51.262;7.066;2022-09-23T00:02:33;11.60;99.90
24162;DHT22;12318;51.262;7.066;2022-09-23T00:04:59;11.60;99.90
24162;DHT22;12318;51.262;7.066;2022-09-23T00:07:24;11.60;99.90
24162;DHT22;12318;51.262;7.066;2022-09-23T00:09:50;11.40;99.90
24162;DHT22;12318;51.262;7.066;2022-09-23T00:15:37;11.50;99.90
24162;DHT22;12318;51.262;7.066;2022-09-23T00:18:06;11.40;99.90
24162;DHT22;12318;51.262;7.066;2022-09-23T00:20:36;11.30;99.90
24162;DHT22;12318;51.262;7.066;2022-09-23T00:23:11;11.30;99.90
24162;DHT22;12318;51.262;7.066;2022-09-23T00:25:41;11.40;99.90
24162;DHT22;12318;51.262;7.066;2022-09-23T00:28:13;11.50;99.90
24162;DHT22;12318;51.262;7.066;2022-09-23T00:30:44;11.50;99.90
24162;DHT22;12318;51.262;7.066;2022-09-23T00:33:10;11.60;99.90
24162;DHT22;12318;51.262;7.066;2022-09-23T00:35:38;11.40;99.90
24162;DHT22;12318;51.262;7.066;2022-09-23T00:38:06;11.40;99.90
24162;DHT22;12318;51.262;7.066;2022-09-23T00:40:34;11.30;99.90
24162;DHT22;12318;51.262;7.066;2022-09-23T00:43:05;11.40;99.90
24162;DHT22;12318;51.262;7.066;2022-09-23T00:45:30;11.30;99.90
24162;DHT22;12318;51.262;7.066;2022-09-23T00:47:58;11.40;99.90
24162;DHT22;12318;51.262;7.066;2022-09-23T00:50:38;11.30;99.90
24162;DHT22;12318;51.262;7.066;2022-09-23T00:53:09;11.40;99.90
24162;DHT22;12318;51.262;7.066;2022-09-23T00:55:36;11.40;99.90
24162;DHT22;12318;51.262;7.066;2022-09-23T00:58:10;11.30;99.90
24162;DHT22;12318;51.262;7.066;2022-09-23T01:00:37;11.30;99.90
24162;DHT22;12318;51.262;7.066;2022-09-23T01:03:11;11.30;99.90
24162;DHT22;12318;51.262;7.066;2022-09-23T01:05:38;11.30;99.90
24162;DHT22;12318;51.262;7.066;2022-09-23T01:08:05;11.30;99.90
24162;DHT22;12318;51.262;7.066;2022-09-23T01:16:30;11.20;99.90
24162;DHT22;12318;51.262;7.066;2022-09-23T01:19:09;11.20;99.90
24162;DHT22;12318;51.262;7.066;2022-09-23T01:24:36;11.30;99.90
24162;DHT22;12318;51.262;7.066;2022-09-23T01:27:37;11.30;99.90
24162;DHT22;12318;51.262;7.066;2022-09-23T01:39:16;11.30;99.90
24162;DHT22;12318;51.262;7.066;2022-09-23T01:42:16;11.30;99.90
24162;DHT22;12318;51.262;7.066;2022-09-23T01:48:00;11.30;99.90
24162;DHT22;12318;51.262;7.066;2022-09-23T01:50:31;11.30;99.90
24162;DHT22;12318;51.262;7.066;2022-09-23T01:55:54;11.20;99.90
24162;DHT22;12318;51.262;7.066;2022-09-23T01:58:42;11.20;99.90
24162;DHT22;12318;51.262;7.066;2022-09-23T02:01:14;11.20;99.90
24162;DHT22;12318;51.262;7.066;2022-09-23T02:03:53;11.30;99.90
24162;DHT22;12318;51.262;7.066;2022-09-23T02:06:38;11.30;99.90
24162;DHT22;12318;51.262;7.066;2022-09-23T02:09:24;11.30;99.90
24162;DHT22;12318;51.262;7.066;2022-09-23T02:11:59;11.30;99.90
24162;DHT22;12318;51.262;7.066;2022-09-23T02:14:57;11.20;99.90
24162;DHT22;12318;51.262;7.066;2022-09-23T02:17:44;11.20;99.90
24162;DHT22;12318;51.262;7.066;2022-09-23T02:20:13;11.20;99.90
24162;DHT22;12318;51.262;7.066;2022-09-23T02:23:13;11.30;99.90
24162;DHT22;12318;51.262;7.066;2022-09-23T02:28:37;11.30;99.90
24162;DHT22;12318;51.262;7.066;2022-09-23T02:34:33;11.10;99.90
24162;DHT22;12318;51.262;7.066;2022-09-23T02:37:37;11.10;99.90
24162;DHT22;12318;51.262;7.066;2022-09-23T02:40:30;11.10;99.90
24162;DHT22;12318;51.262;7.066;2022-09-23T02:43:11;11.10;99.90
24162;DHT22;12318;51.262;7.066;2022-09-23T02:45:51;11.00;99.90
24162;DHT22;12318;51.262;7.066;2022-09-23T02:51:30;11.00;99.90
24162;DHT22;12318;51.262;7.066;2022-09-23T02:54:31;11.00;99.90
24162;DHT22;12318;51.262;7.066;2022-09-23T02:57:01;11.00;99.90
24162;DHT22;12318;51.262;7.066;2022-09-23T02:59:29;11.10;99.90
24162;DHT22;12318;51.262;7.066;2022-09-23T03:07:22;11.00;99.90
24162;DHT22;12318;51.262;7.066;2022-09-23T03:10:08;10.90;99.90
24162;DHT22;12318;51.262;7.066;2022-09-23T03:15:49;10.90;99.90
24162;DHT22;12318;51.262;7.066;2022-09-23T03:18:38;10.90;99.90
24162;DHT22;12318;51.262;7.066;2022-09-23T03:21:17;10.90;99.90
24162;DHT22;12318;51.262;7.066;2022-09-23T03:23:46;10.90;99.90
24162;DHT22;12318;51.262;7.066;2022-09-23T03:29:56;10.90;99.90
24162;DHT22;12318;51.262;7.066;2022-09-23T03:32:24;10.90;99.90
24162;DHT22;12318;51.262;7.066;2022-09-23T03:34:58;10.90;99.90
24162;DHT22;12318;51.262;7.066;2022-09-23T03:37:54;10.90;99.90
24162;DHT22;12318;51.262;7.066;2022-09-23T03:40:33;10.80;99.90
24162;DHT22;12318;51.262;7.066;2022-09-23T03:43:00;10.80;99.90
24162;DHT22;12318;51.262;7.066;2022-09-23T03:45:31;10.80;99.90
24162;DHT22;12318;51.262;7.066;2022-09-23T03:47:57;10.70;99.90
24162;DHT22;12318;51.262;7.066;2022-09-23T03:50:23;10.70;99.90
24162;DHT22;12318;51.262;7.066;2022-09-23T03:52:49;10.70;99.90
24162;DHT22;12318;51.262;7.066;2022-09-23T03:55:16;10.80;99.90
24162;DHT22;12318;51.262;7.066;2022-09-23T03:57:45;10.80;99.90
24162;DHT22;12318;51.262;7.066;2022-09-23T04:00:19;10.70;99.90
24162;DHT22;12318;51.262;7.066;2022-09-23T04:02:49;10.70;99.90
24162;DHT22;12318;51.262;7.066;2022-09-23T04:05:19;10.70;99.90
24162;DHT22;12318;51.262;7.066;2022-09-23T04:07:51;10.70;99.90
24162;DHT22;12318;51.262;7.066;2022-09-23T04:10:25;10.70;99.90
24162;DHT22;12318;51.262;7.066;2022-09-23T04:13:00;10.80;99.90
24162;DHT22;12318;51.262;7.066;2022-09-23T04:15:25;10.80;99.90
24162;DHT22;12318;51.262;7.066;2022-09-23T04:17:58;10.70;99.90
24162;DHT22;12318;51.262;7.066;2022-09-23T04:20:23;10.70;99.90
24162;DHT22;12318;51.262;7.066;2022-09-23T04:22:50;10.70;99.90
24162;DHT22;12318;51.262;7.066;2022-09-23T04:25:16;10.70;99.90
24162;DHT22;12318;51.262;7.066;2022-09-23T04:27:43;10.70;99.90
24162;DHT22;12318;51.262;7.066;2022-09-23T04:30:09;10.60;99.90
24162;DHT22;12318;51.262;7.066;2022-09-23T04:32:35;10.60;99.90
24162;DHT22;12318;51.262;7.066;2022-09-23T04:35:00;10.50;99.90
24162;DHT22;12318;51.262;7.066;2022-09-23T04:37:27;10.50;99.90
24162;DHT22;12318;51.262;7.066;2022-09-23T04:39:52;10.50;99.90
24162;DHT22;12318;51.262;7.066;2022-09-23T04:42:18;10.40;99.90
24162;DHT22;12318;51.262;7.066;2022-09-23T04:44:44;10.50;99.90
24162;DHT22;12318;51.262;7.066;2022-09-23T04:47:39;10.40;99.90
24162;DHT22;12318;51.262;7.066;2022-09-23T04:50:05;10.40;99.90
24162;DHT22;12318;51.262;7.066;2022-09-23T04:52:34;10.40;99.90
24162;DHT22;12318;51.262;7.066;2022-09-23T04:54:59;10.40;99.90
24162;DHT22;12318;51.262;7.066;2022-09-23T04:57:27;10.40;99.90
24162;DHT22;12318;51.262;7.066;2022-09-23T04:59:54;10.40;99.90
24162;DHT22;12318;51.262;7.066;2022-09-23T05:02:21;10.40;99.90
24162;DHT22;12318;51.262;7.066;2022-09-23T05:04:47;10.40;99.90
24162;DHT22;12318;51.262;7.066;2022-09-23T05:07:15;10.40;99.90
24162;DHT22;12318;51.262;7.066;2022-09-23T05:09:42;10.30;99.90
24162;DHT22;12318;51.262;7.066;2022-09-23T05:12:08;10.30;99.90
24162;DHT22;12318;51.262;7.066;2022-09-23T05:14:34;10.30;99.90
24162;DHT22;12318;51.262;7.066;2022-09-23T05:17:06;10.40;99.90
24162;DHT22;12318;51.262;7.066;2022-09-23T05:19:32;10.30;99.90
24162;DHT22;12318;51.262;7.066;2022-09-23T05:21:57;10.30;99.90
24162;DHT22;12318;51.262;7.066;2022-09-23T05:24:23;10.30;99.90
24162;DHT22;12318;51.262;7.066;2022-09-23T05:27:00;10.30;99.90
24162;DHT22;12318;51.262;7.066;2022-09-23T05:29:26;10.30;99.90
24162;DHT22;12318;51.262;7.066;2022-09-23T05:31:53;10.40;99.90
24162;DHT22;12318;51.262;7.066;2022-09-23T05:34:19;10.30;99.90
24162;DHT22;12318;51.262;7.066;2022-09-23T05:36:47;10.40;99.90
24162;DHT22;12318;51.262;7.066;2022-09-23T05:39:13;10.40;99.90
24162;DHT22;12318;51.262;7.066;2022-09-23T05:41:38;10.30;99.90
24162;DHT22;12318;51.262;7.066;2022-09-23T05:44:07;10.30;99.90
24162;DHT22;12318;51.262;7.066;2022-09-23T05:46:33;10.30;99.90
24162;DHT22;12318;51.262;7.066;2022-09-23T05:48:59;10.30;99.90
24162;DHT22;12318;51.262;7.066;2022-09-23T05:51:26;10.40;99.90
24162;DHT22;12318;51.262;7.066;2022-09-23T05:53:54;10.40;99.90
24162;DHT22;12318;51.262;7.066;2022-09-23T05:56:24;10.40;99.90
24162;DHT22;12318;51.262;7.066;2022-09-23T05:58:52;10.40;99.90
24162;DHT22;12318;51.262;7.066;2022-09-23T06:01:23;10.40;99.90
24162;DHT22;12318;51.262;7.066;2022-09-23T06:03:55;10.30;99.90
24162;DHT22;12318;51.262;7.066;2022-09-23T06:06:32;10.40;99.90
24162;DHT22;12318;51.262;7.066;2022-09-23T06:08:58;10.40;99.90
24162;DHT22;12318;51.262;7.066;2022-09-23T06:11:25;10.50;99.90
24162;DHT22;12318;51.262;7.066;2022-09-23T06:13:55;10.50;99.90
24162;DHT22;12318;51.262;7.066;2022-09-23T06:16:33;10.60;99.90
24162;DHT22;12318;51.262;7.066;2022-09-23T06:18:59;10.60;99.90
24162;DHT22;12318;51.262;7.066;2022-09-23T06:21:30;10.60;99.90
24162;DHT22;12318;51.262;7.066;2022-09-23T06:24:00;10.50;99.90
24162;DHT22;12318;51.262;7.066;2022-09-23T06:26:26;10.60;99.90
24162;DHT22;12318;51.262;7.066;2022-09-23T06:28:53;10.60;99.90
24162;DHT22;12318;51.262;7.066;2022-09-23T06:31:19;10.70;99.90
24162;DHT22;12318;51.262;7.066;2022-09-23T06:33:44;10.70;99.90
24162;DHT22;12318;51.262;7.066;2022-09-23T06:36:15;10.70;99.90
24162;DHT22;12318;51.262;7.066;2022-09-23T06:38:43;10.70;99.90
24162;DHT22;12318;51.262;7.066;2022-09-23T06:41:12;10.80;99.90
24162;DHT22;12318;51.262;7.066;2022-09-23T06:43:45;10.90;99.90
24162;DHT22;12318;51.262;7.066;2022-09-23T06:46:14;10.90;99.90
24162;DHT22;12318;51.262;7.066;2022-09-23T06:48:43;11.10;99.90
24162;DHT22;12318;51.262;7.066;2022-09-23T06:51:15;11.20;99.90
24162;DHT22;12318;51.262;7.066;2022-09-23T06:53:52;11.20;99.90
24162;DHT22;12318;51.262;7.066;2022-09-23T06:56:24;11.40;99.90
24162;DHT22;12318;51.262;7.066;2022-09-23T06:58:51;11.60;99.90
24162;DHT22;12318;51.262;7.066;2022-09-23T07:01:25;11.60;99.90
24162;DHT22;12318;51.262;7.066;2022-09-23T07:03:54;11.70;99.90
24162;DHT22;12318;51.262;7.066;2022-09-23T07:09:30;12.10;99.90
24162;DHT22;12318;51.262;7.066;2022-09-23T07:11:56;12.20;99.90
24162;DHT22;12318;51.262;7.066;2022-09-23T07:14:25;12.20;99.90
24162;DHT22;12318;51.262;7.066;2022-09-23T07:17:09;12.30;99.90
24162;DHT22;12318;51.262;7.066;2022-09-23T07:19:41;12.40;99.90
24162;DHT22;12318;51.262;7.066;2022-09-23T07:22:18;12.50;99.90
24162;DHT22;12318;51.262;7.066;2022-09-23T07:25:06;12.60;99.90
24162;DHT22;12318;51.262;7.066;2022-09-23T07:27:48;12.70;99.90
24162;DHT22;12318;51.262;7.066;2022-09-23T07:30:21;12.90;99.90
24162;DHT22;12318;51.262;7.066;2022-09-23T07:32:52;12.90;99.90
24162;DHT22;12318;51.262;7.066;2022-09-23T07:35:32;13.00;99.90
24162;DHT22;12318;51.262;7.066;2022-09-23T07:38:22;13.10;99.90
24162;DHT22;12318;51.262;7.066;2022-09-23T07:41:04;13.20;99.90
24162;DHT22;12318;51.262;7.066;2022-09-23T07:43:40;13.20;99.90
24162;DHT22;12318;51.262;7.066;2022-09-23T07:46:30;13.30;99.90
24162;DHT22;12318;51.262;7.066;2022-09-23T07:48:57;13.20;99.90
24162;DHT22;12318;51.262;7.066;2022-09-23T07:52:04;13.20;99.90
24162;DHT22;12318;51.262;7.066;2022-09-23T07:54:38;13.30;99.90
24162;DHT22;12318;51.262;7.066;2022-09-23T07:57:24;13.40;99.90
24162;DHT22;12318;51.262;7.066;2022-09-23T08:00:12;13.50;99.90
24162;DHT22;12318;51.262;7.066;2022-09-23T08:02:48;13.70;99.90
24162;DHT22;12318;51.262;7.066;2022-09-23T08:05:20;13.70;99.90
24162;DHT22;12318;51.262;7.066;2022-09-23T08:08:11;13.50;99.90
24162;DHT22;12318;51.262;7.066;2022-09-23T08:10:58;13.60;99.90
24162;DHT22;12318;51.262;7.066;2022-09-23T08:13:38;13.80;99.90
24162;DHT22;12318;51.262;7.066;2022-09-23T08:16:12;13.70;99.90
24162;DHT22;12318;51.262;7.066;2022-09-23T08:18:45;13.70;99.90
24162;DHT22;12318;51.262;7.066;2022-09-23T08:21:37;13.60;99.90
24162;DHT22;12318;51.262;7.066;2022-09-23T08:24:20;13.70;99.90
24162;DHT22;12318;51.262;7.066;2022-09-23T08:32:34;14.00;99.90
24162;DHT22;12318;51.262;7.066;2022-09-23T08:35:25;14.10;99.90
24162;DHT22;12318;51.262;7.066;2022-09-23T08:37:59;14.00;99.90
24162;DHT22;12318;51.262;7.066;2022-09-23T08:40:39;14.20;99.90
24162;DHT22;12318;51.262;7.066;2022-09-23T08:43:16;14.30;99.90
24162;DHT22;12318;51.262;7.066;2022-09-23T08:45:55;14.40;99.90
24162;DHT22;12318;51.262;7.066;2022-09-23T08:48:55;14.40;99.90
24162;DHT22;12318;51.262;7.066;2022-09-23T08:51:47;14.60;99.90
24162;DHT22;12318;51.262;7.066;2022-09-23T08:57:32;14.60;99.90
24162;DHT22;12318;51.262;7.066;2022-09-23T09:00:29;14.70;99.90
24162;DHT22;12318;51.262;7.066;2022-09-23T09:03:42;15.00;99.90
24162;DHT22;12318;51.262;7.066;2022-09-23T09:12:27;15.10;99.90
24162;DHT22;12318;51.262;7.066;2022-09-23T09:15:24;15.10;99.90
24162;DHT22;12318;51.262;7.066;2022-09-23T09:18:26;15.10;99.90
24162;DHT22;12318;51.262;7.066;2022-09-23T09:21:15;15.00;99.90
24162;DHT22;12318;51.262;7.066;2022-09-23T09:24:15;14.80;99.90
24162;DHT22;12318;51.262;7.066;2022-09-23T09:26:42;15.00;99.90
24162;DHT22;12318;51.262;7.066;2022-09-23T09:29:23;15.20;99.90
24162;DHT22;12318;51.262;7.066;2022-09-23T09:31:51;15.10;99.90
24162;DHT22;12318;51.262;7.066;2022-09-23T09:34:54;15.20;99.90
24162;DHT22;12318;51.262;7.066;2022-09-23T09:37:33;15.20;99.90
24162;DHT22;12318;51.262;7.066;2022-09-23T09:40:01;15.40;99.90
24162;DHT22;12318;51.262;7.066;2022-09-23T09:42:42;15.50;99.90
24162;DHT22;12318;51.262;7.066;2022-09-23T09:45:36;15.60;99.90
24162;DHT22;12318;51.262;7.066;2022-09-23T09:51:20;15.70;99.90
24162;DHT22;12318;51.262;7.066;2022-09-23T09:53:47;15.70;99.90
24162;DHT22;12318;51.262;7.066;2022-09-23T09:56:17;16.00;99.90
24162;DHT22;12318;51.262;7.066;2022-09-23T09:58:57;16.00;99.90
24162;DHT22;12318;51.262;7.066;2022-09-23T10:01:30;15.90;99.90
24162;DHT22;12318;51.262;7.066;2022-09-23T10:04:23;15.90;99.90
24162;DHT22;12318;51.262;7.066;2022-09-23T10:07:08;15.90;99.90
24162;DHT22;12318;51.262;7.066;2022-09-23T10:09:37;16.10;99.90
24162;DHT22;12318;51.262;7.066;2022-09-23T10:12:18;16.20;99.90
24162;DHT22;12318;51.262;7.066;2022-09-23T10:14:46;16.20;99.90
24162;DHT22;12318;51.262;7.066;2022-09-23T10:17:22;16.30;99.90
24162;DHT22;12318;51.262;7.066;2022-09-23T10:19:55;16.40;99.90
24162;DHT22;12318;51.262;7.066;2022-09-23T10:22:30;16.50;99.90
24162;DHT22;12318;51.262;7.066;2022-09-23T10:25:18;16.30;99.90
24162;DHT22;12318;51.262;7.066;2022-09-23T10:27:45;16.40;99.90
24162;DHT22;12318;51.262;7.066;2022-09-23T10:30:22;16.40;99.90
24162;DHT22;12318;51.262;7.066;2022-09-23T10:35:55;16.40;99.90
24162;DHT22;12318;51.262;7.066;2022-09-23T10:38:25;16.60;99.90
24162;DHT22;12318;51.262;7.066;2022-09-23T10:40:57;16.50;99.90
24162;DHT22;12318;51.262;7.066;2022-09-23T10:49:57;16.80;99.90
24162;DHT22;12318;51.262;7.066;2022-09-23T10:52:53;16.90;99.90
24162;DHT22;12318;51.262;7.066;2022-09-23T10:55:30;16.90;99.90
24162;DHT22;12318;51.262;7.066;2022-09-23T11:04:48;17.30;99.90
24162;DHT22;12318;51.262;7.066;2022-09-23T11:07:33;17.40;99.90
24162;DHT22;12318;51.262;7.066;2022-09-23T11:16:28;17.30;99.90
24162;DHT22;12318;51.262;7.066;2022-09-23T11:29:02;17.90;99.90
24162;DHT22;12318;51.262;7.066;2022-09-23T11:37:53;17.70;99.90
24162;DHT22;12318;51.262;7.066;2022-09-23T11:40:51;17.70;99.90
24162;DHT22;12318;51.262;7.066;2022-09-23T11:43:52;17.80;99.90
24162;DHT22;12318;51.262;7.066;2022-09-23T11:46:29;17.80;99.90
24162;DHT22;12318;51.262;7.066;2022-09-23T11:49:26;17.80;99.90
24162;DHT22;12318;51.262;7.066;2022-09-23T11:52:17;17.80;99.90
24162;DHT22;12318;51.262;7.066;2022-09-23T11:54:47;18.00;99.90
24162;DHT22;12318;51.262;7.066;2022-09-23T11:57:26;17.90;99.90
24162;DHT22;12318;51.262;7.066;2022-09-23T11:59:59;17.80;99.90
24162;DHT22;12318;51.262;7.066;2022-09-23T12:05:36;18.30;99.90
24162;DHT22;12318;51.262;7.066;2022-09-23T12:08:09;18.50;99.80
24162;DHT22;12318;51.262;7.066;2022-09-23T12:13:38;18.60;99.90
24162;DHT22;12318;51.262;7.066;2022-09-23T12:18:59;18.20;99.90
24162;DHT22;12318;51.262;7.066;2022-09-23T12:22:02;18.30;99.90
24162;DHT22;12318;51.262;7.066;2022-09-23T12:24:48;18.40;99.90
24162;DHT22;12318;51.262;7.066;2022-09-23T12:27:25;18.30;99.90
24162;DHT22;12318;51.262;7.066;2022-09-23T12:30:02;18.20;99.90
24162;DHT22;12318;51.262;7.066;2022-09-23T12:32:29;18.20;99.90
24162;DHT22;12318;51.262;7.066;2022-09-23T12:34:58;18.20;99.90
24162;DHT22;12318;51.262;7.066;2022-09-23T12:37:33;18.00;99.90
24162;DHT22;12318;51.262;7.066;2022-09-23T12:40:07;17.80;99.90
24162;DHT22;12318;51.262;7.066;2022-09-23T12:42:34;17.90;99.90
24162;DHT22;12318;51.262;7.066;2022-09-23T12:45:32;18.20;99.90
24162;DHT22;12318;51.262;7.066;2022-09-23T12:50:50;18.10;99.90
24162;DHT22;12318;51.262;7.066;2022-09-23T12:56:13;17.60;99.90
24162;DHT22;12318;51.262;7.066;2022-09-23T13:01:19;17.70;99.90
24162;DHT22;12318;51.262;7.066;2022-09-23T13:03:55;17.90;99.90
24162;DHT22;12318;51.262;7.066;2022-09-23T13:09:14;17.70;99.10
24162;DHT22;12318;51.262;7.066;2022-09-23T13:11:42;17.40;99.70
24162;DHT22;12318;51.262;7.066;2022-09-23T13:14:26;17.30;99.60
24162;DHT22;12318;51.262;7.066;2022-09-23T13:16:53;17.40;99.90
24162;DHT22;12318;51.262;7.066;2022-09-23T13:22:06;17.60;99.90
24162;DHT22;12318;51.262;7.066;2022-09-23T13:24:58;17.60;99.90
24162;DHT22;12318;51.262;7.066;2022-09-23T13:27:29;17.60;99.90
24162;DHT22;12318;51.262;7.066;2022-09-23T13:30:05;17.50;99.90
24162;DHT22;12318;51.262;7.066;2022-09-23T13:32:36;17.60;99.90
24162;DHT22;12318;51.262;7.066;2022-09-23T13:35:31;17.30;99.90
24162;DHT22;12318;51.262;7.066;2022-09-23T13:37:58;17.40;99.90
24162;DHT22;12318;51.262;7.066;2022-09-23T13:40:26;17.30;99.90
24162;DHT22;12318;51.262;7.066;2022-09-23T13:42:54;17.30;99.90
24162;DHT22;12318;51.262;7.066;2022-09-23T13:45:24;17.20;99.90
24162;DHT22;12318;51.262;7.066;2022-09-23T13:47:52;17.20;99.90
24162;DHT22;12318;51.262;7.066;2022-09-23T13:50:21;17.20;99.90
24162;DHT22;12318;51.262;7.066;2022-09-23T13:55:44;17.20;99.90
24162;DHT22;12318;51.262;7.066;2022-09-23T13:58:18;17.20;99.90
24162;DHT22;12318;51.262;7.066;2022-09-23T14:00:44;17.30;99.90
24162;DHT22;12318;51.262;7.066;2022-09-23T14:03:24;17.30;99.90
24162;DHT22;12318;51.262;7.066;2022-09-23T14:05:51;17.30;99.90
24162;DHT22;12318;51.262;7.066;2022-09-23T14:08:17;17.40;99.90
24162;DHT22;12318;51.262;7.066;2022-09-23T14:10:44;17.40;99.90
24162;DHT22;12318;51.262;7.066;2022-09-23T14:13:28;17.30;99.90
24162;DHT22;12318;51.262;7.066;2022-09-23T14:15:58;17.20;99.90
24162;DHT22;12318;51.262;7.066;2022-09-23T14:18:35;17.20;99.90
24162;DHT22;12318;51.262;7.066;2022-09-23T14:21:03;17.30;99.90
24162;DHT22;12318;51.262;7.066;2022-09-23T14:23:28;17.20;99.90
24162;DHT22;12318;51.262;7.066;2022-09-23T14:26:19;17.20;99.90
24162;DHT22;12318;51.262;7.066;2022-09-23T14:28:46;17.20;99.90
24162;DHT22;12318;51.262;7.066;2022-09-23T14:31:12;17.20;99.90
24162;DHT22;12318;51.262;7.066;2022-09-23T14:33:40;17.20;99.90
24162;DHT22;12318;51.262;7.066;2022-09-23T14:36:12;17.20;99.90
24162;DHT22;12318;51.262;7.066;2022-09-23T14:39:08;17.20;99.90
24162;DHT22;12318;51.262;7.066;2022-09-23T14:41:37;17.10;99.90
24162;DHT22;12318;51.262;7.066;2022-09-23T14:44:04;17.20;99.90
24162;DHT22;12318;51.262;7.066;2022-09-23T14:46:33;17.20;99.90
24162;DHT22;12318;51.262;7.066;2022-09-23T14:51:53;17.10;99.90
24162;DHT22;12318;51.262;7.066;2022-09-23T14:57:27;17.00;99.90
24162;DHT22;12318;51.262;7.066;2022-09-23T15:00:06;17.00;99.90
24162;DHT22;12318;51.262;7.066;2022-09-23T15:02:44;17.10;99.90
24162;DHT22;12318;51.262;7.066;2022-09-23T15:05:46;17.10;99.90
24162;DHT22;12318;51.262;7.066;2022-09-23T15:08:20;17.00;99.90
24162;DHT22;12318;51.262;7.066;2022-09-23T15:10:48;17.00;99.90
24162;DHT22;12318;51.262;7.066;2022-09-23T15:13:38;17.00;99.90
24162;DHT22;12318;51.262;7.066;2022-09-23T15:16:05;17.00;99.90
24162;DHT22;12318;51.262;7.066;2022-09-23T15:18:40;16.90;99.90
24162;DHT22;12318;51.262;7.066;2022-09-23T15:21:16;17.00;99.90
24162;DHT22;12318;51.262;7.066;2022-09-23T15:23:43;16.90;99.90
24162;DHT22;12318;51.262;7.066;2022-09-23T15:26:18;16.80;99.90
24162;DHT22;12318;51.262;7.066;2022-09-23T15:28:46;16.70;99.90
24162;DHT22;12318;51.262;7.066;2022-09-23T15:31:17;16.80;99.90
24162;DHT22;12318;51.262;7.066;2022-09-23T15:33:47;16.80;99.90
24162;DHT22;12318;51.262;7.066;2022-09-23T15:36:26;16.70;99.90
24162;DHT22;12318;51.262;7.066;2022-09-23T15:38:53;16.50;99.90
24162;DHT22;12318;51.262;7.066;2022-09-23T15:41:22;16.30;99.90
24162;DHT22;12318;51.262;7.066;2022-09-23T15:43:50;16.20;99.90
24162;DHT22;12318;51.262;7.066;2022-09-23T15:46:18;16.30;99.90
24162;DHT22;12318;51.262;7.066;2022-09-23T15:49:06;16.30;99.90
24162;DHT22;12318;51.262;7.066;2022-09-23T15:51:33;16.40;99.90
24162;DHT22;12318;51.262;7.066;2022-09-23T15:54:10;16.40;99.90
24162;DHT22;12318;51.262;7.066;2022-09-23T15:56:36;16.30;99.90
24162;DHT22;12318;51.262;7.066;2022-09-23T15:59:02;16.20;99.90
24162;DHT22;12318;51.262;7.066;2022-09-23T16:01:32;16.20;99.90
24162;DHT22;12318;51.262;7.066;2022-09-23T16:04:02;16.00;99.90
24162;DHT22;12318;51.262;7.066;2022-09-23T16:06:30;16.00;99.90
24162;DHT22;12318;51.262;7.066;2022-09-23T16:08:56;15.90;99.90
24162;DHT22;12318;51.262;7.066;2022-09-23T16:11:26;15.90;99.90
24162;DHT22;12318;51.262;7.066;2022-09-23T16:13:55;16.00;99.90
24162;DHT22;12318;51.262;7.066;2022-09-23T16:16:21;16.00;99.90
24162;DHT22;12318;51.262;7.066;2022-09-23T16:18:48;16.00;99.90
24162;DHT22;12318;51.262;7.066;2022-09-23T16:21:27;15.90;99.90
24162;DHT22;12318;51.262;7.066;2022-09-23T16:23:56;15.90;99.90
24162;DHT22;12318;51.262;7.066;2022-09-23T16:26:31;15.90;99.90
24162;DHT22;12318;51.262;7.066;2022-09-23T16:29:04;15.90;99.90
24162;DHT22;12318;51.262;7.066;2022-09-23T16:31:29;15.80;99.90
24162;DHT22;12318;51.262;7.066;2022-09-23T16:33:57;15.70;99.90
24162;DHT22;12318;51.262;7.066;2022-09-23T16:36:39;15.70;99.90
24162;DHT22;12318;51.262;7.066;2022-09-23T16:39:10;15.60;99.90
24162;DHT22;12318;51.262;7.066;2022-09-23T16:41:36;15.70;99.90
24162;DHT22;12318;51.262;7.066;2022-09-23T16:44:20;15.70;99.90
24162;DHT22;12318;51.262;7.066;2022-09-23T16:46:46;15.70;99.90
24162;DHT22;12318;51.262;7.066;2022-09-23T16:49:12;15.70;99.90
24162;DHT22;12318;51.262;7.066;2022-09-23T16:51:39;15.80;99.90
24162;DHT22;12318;51.262;7.066;2022-09-23T16:54:09;15.80;99.90
24162;DHT22;12318;51.262;7.066;2022-09-23T16:56:38;15.70;99.90
24162;DHT22;12318;51.262;7.066;2022-09-23T16:59:04;15.70;99.90
24162;DHT22;12318;51.262;7.066;2022-09-23T17:01:30;15.50;99.90
24162;DHT22;12318;51.262;7.066;2022-09-23T17:04:15;15.40;99.90
24162;DHT22;12318;51.262;7.066;2022-09-23T17:06:46;15.50;99.90
24162;DHT22;12318;51.262;7.066;2022-09-23T17:09:16;15.50;99.90
24162;DHT22;12318;51.262;7.066;2022-09-23T17:11:44;15.40;99.90
24162;DHT22;12318;51.262;7.066;2022-09-23T17:14:16;15.40;99.90
24162;DHT22;12318;51.262;7.066;2022-09-23T17:16:43;15.40;99.90
24162;DHT22;12318;51.262;7.066;2022-09-23T17:19:11;15.40;99.90
24162;DHT22;12318;51.262;7.066;2022-09-23T17:21:38;15.40;99.90
24162;DHT22;12318;51.262;7.066;2022-09-23T17:24:17;15.40;99.90
24162;DHT22;12318;51.262;7.066;2022-09-23T17:26:47;15.40;99.90
24162;DHT22;12318;51.262;7.066;2022-09-23T17:29:14;15.30;99.90
24162;DHT22;12318;51.262;7.066;2022-09-23T17:31:41;15.10;99.90
24162;DHT22;12318;51.262;7.066;2022-09-23T17:34:07;15.20;99.90
24162;DHT22;12318;51.262;7.066;2022-09-23T17:36:33;15.20;99.90
24162;DHT22;12318;51.262;7.066;2022-09-23T17:39:00;15.20;99.90
24162;DHT22;12318;51.262;7.066;2022-09-23T17:41:28;15.30;99.90
24162;DHT22;12318;51.262;7.066;2022-09-23T17:43:56;15.20;99.90
24162;DHT22;12318;51.262;7.066;2022-09-23T17:46:25;15.20;99.90
24162;DHT22;12318;51.262;7.066;2022-09-23T17:48:53;15.20;99.90
24162;DHT22;12318;51.262;7.066;2022-09-23T17:51:20;15.10;99.90
24162;DHT22;12318;51.262;7.066;2022-09-23T17:53:48;15.00;99.90
24162;DHT22;12318;51.262;7.066;2022-09-23T17:56:24;15.00;99.90
24162;DHT22;12318;51.262;7.066;2022-09-23T17:59:20;15.00;99.90
24162;DHT22;12318;51.262;7.066;2022-09-23T18:01:45;14.90;99.90
24162;DHT22;12318;51.262;7.066;2022-09-23T18:04:11;14.80;99.90
24162;DHT22;12318;51.262;7.066;2022-09-23T18:06:38;14.80;99.90
24162;DHT22;12318;51.262;7.066;2022-09-23T18:09:13;14.80;99.90
24162;DHT22;12318;51.262;7.066;2022-09-23T18:11:42;15.00;99.90
24162;DHT22;12318;51.262;7.066;2022-09-23T18:16:42;15.00;99.90
24162;DHT22;12318;51.262;7.066;2022-09-23T18:19:14;15.20;99.90
24162;DHT22;12318;51.262;7.066;2022-09-23T18:21:48;15.00;99.90
24162;DHT22;12318;51.262;7.066;2022-09-23T18:24:15;14.70;99.90
24162;DHT22;12318;51.262;7.066;2022-09-23T18:26:41;14.80;99.90
24162;DHT22;12318;51.262;7.066;2022-09-23T18:29:09;14.80;99.90
24162;DHT22;12318;51.262;7.066;2022-09-23T18:31:36;14.70;99.90
24162;DHT22;12318;51.262;7.066;2022-09-23T18:34:06;14.60;99.90
24162;DHT22;12318;51.262;7.066;2022-09-23T18:36:33;14.70;99.90